createdAt,value
2018-01-20T00:01:21.022Z,38.70
2018-01-20T00:03:48.866Z,35.57
2018-01-20T00:06:16.713Z,34.87
2018-01-20T00:08:44.661Z,29.80
2018-01-20T00:11:18.603Z,29.37
2018-01-20T00:13:46.484Z,34.00
2018-01-20T00:16:14.331Z,30.63
2018-01-20T00:18:42.202Z,36.87
2018-01-20T00:21:10.140Z,33.27
2018-01-20T00:23:37.975Z,31.43
2018-01-20T00:26:11.965Z,27.70
2018-01-20T00:28:39.812Z,28.30
2018-01-20T00:31:07.696Z,30.43
2018-01-20T00:33:38.591Z,29.93
2018-01-20T00:36:08.944Z,30.50
2018-01-20T00:38:37.970Z,29.53
2018-01-20T00:41:05.909Z,29.53
2018-01-20T00:43:33.785Z,31.83
2018-01-20T00:46:02.582Z,32.50
2018-01-20T00:48:30.497Z,25.90
2018-01-20T00:51:00.410Z,29.63
2018-01-20T00:53:28.513Z,28.83
2018-01-20T00:55:56.393Z,29.50
2018-01-20T00:58:24.263Z,28.13
2018-01-20T01:00:53.341Z,34.83
2018-01-20T01:03:21.381Z,35.37
2018-01-20T01:05:49.232Z,35.60
2018-01-20T01:08:17.085Z,37.77
2018-01-20T01:10:45.034Z,36.83
2018-01-20T01:13:12.871Z,32.37
2018-01-20T01:15:40.771Z,33.53
2018-01-20T01:18:08.659Z,33.70
2018-01-20T01:20:36.544Z,41.63
2018-01-20T01:23:04.386Z,37.77
2018-01-20T01:25:32.909Z,33.00
2018-01-20T01:28:00.760Z,29.63
2018-01-20T01:30:28.643Z,32.97
2018-01-20T01:32:56.536Z,31.43
2018-01-20T01:35:24.406Z,33.10
2018-01-20T01:37:52.274Z,33.57
2018-01-20T01:40:20.166Z,28.97
2018-01-20T01:42:48.014Z,28.03
2018-01-20T01:45:16.058Z,30.40
2018-01-20T01:47:43.912Z,31.07
2018-01-20T01:50:11.909Z,24.80
2018-01-20T01:52:39.782Z,30.17
2018-01-20T01:55:07.755Z,36.23
2018-01-20T01:57:35.624Z,36.63
2018-01-20T02:00:03.471Z,29.00
2018-01-20T02:02:31.331Z,27.00
2018-01-20T02:04:59.218Z,28.73
2018-01-20T02:07:27.098Z,29.70
2018-01-20T02:09:54.926Z,35.47
2018-01-20T02:12:22.804Z,32.47
2018-01-20T02:14:50.869Z,30.50
2018-01-20T02:17:18.724Z,31.97
2018-01-20T02:19:46.588Z,25.53
2018-01-20T02:22:14.426Z,33.40
2018-01-20T02:24:42.320Z,36.17
2018-01-20T02:27:10.227Z,31.07
2018-01-20T02:29:38.060Z,31.83
2018-01-20T02:32:05.991Z,29.20
2018-01-20T02:34:33.849Z,29.73
2018-01-20T02:37:01.753Z,31.77
2018-01-20T02:39:29.693Z,27.47
2018-01-20T02:41:57.557Z,33.20
2018-01-20T02:44:25.450Z,31.90
2018-01-20T02:46:53.323Z,29.20
2018-01-20T02:49:21.181Z,28.60
2018-01-20T02:51:49.060Z,26.83
2018-01-20T02:54:16.919Z,29.77
2018-01-20T02:56:44.759Z,32.33
2018-01-20T02:59:12.636Z,33.63
2018-01-20T03:01:47.572Z,32.60
2018-01-20T03:04:15.478Z,58.27
2018-01-20T03:06:43.371Z,44.90
2018-01-20T03:09:11.220Z,42.43
2018-01-20T03:11:39.076Z,29.80
2018-01-20T03:14:06.946Z,33.27
2018-01-20T03:16:34.814Z,33.70
2018-01-20T03:19:02.671Z,29.47
2018-01-20T03:21:30.498Z,30.57
2018-01-20T03:23:58.342Z,29.30
2018-01-20T03:26:26.187Z,37.47
2018-01-20T03:28:54.085Z,34.43
2018-01-20T03:31:21.929Z,30.87
2018-01-20T03:33:49.787Z,41.00
2018-01-20T03:36:17.637Z,34.53
2018-01-20T03:38:45.483Z,37.93
2018-01-20T03:41:13.336Z,43.60
2018-01-20T03:43:41.192Z,35.00
2018-01-20T03:46:09.068Z,35.10
2018-01-20T03:48:37.045Z,33.47
2018-01-20T03:51:04.912Z,31.03
2018-01-20T03:53:32.815Z,29.60
2018-01-20T03:56:00.682Z,37.27
2018-01-20T03:58:28.511Z,30.27
2018-01-20T04:00:56.367Z,32.80
2018-01-20T04:03:24.303Z,30.63
2018-01-20T04:05:52.199Z,30.67
2018-01-20T04:08:20.072Z,30.17
2018-01-20T04:10:48.006Z,29.60
2018-01-20T04:13:15.864Z,33.70
2018-01-20T04:15:43.691Z,29.73
2018-01-20T04:18:11.588Z,36.23
2018-01-20T04:20:39.423Z,30.20
2018-01-20T04:23:07.364Z,31.33
2018-01-20T04:25:35.228Z,30.60
2018-01-20T04:28:03.077Z,30.00
2018-01-20T04:30:30.921Z,29.90
2018-01-20T04:32:59.335Z,36.80
2018-01-20T04:35:27.180Z,32.13
2018-01-20T04:37:55.044Z,32.10
2018-01-20T04:40:22.948Z,27.30
2018-01-20T04:42:50.783Z,30.70
2018-01-20T04:45:18.602Z,32.20
2018-01-20T04:47:46.467Z,29.70
2018-01-20T04:50:14.317Z,29.40
2018-01-20T04:52:42.163Z,32.67
2018-01-20T04:55:10.044Z,28.77
2018-01-20T04:57:37.912Z,31.90
2018-01-20T05:00:05.768Z,29.83
2018-01-20T05:02:33.656Z,29.50
2018-01-20T05:05:01.521Z,29.40
2018-01-20T05:07:29.372Z,31.37
2018-01-20T05:09:57.251Z,28.20
2018-01-20T05:12:25.211Z,30.27
2018-01-20T05:14:53.083Z,31.03
2018-01-20T05:17:20.927Z,29.50
2018-01-20T05:19:48.792Z,35.50
2018-01-20T05:22:16.640Z,32.03
2018-01-20T05:24:44.499Z,33.27
2018-01-20T05:27:12.415Z,30.87
2018-01-20T05:29:40.364Z,30.97
2018-01-20T05:32:08.265Z,30.97
2018-01-20T05:34:36.192Z,30.63
2018-01-20T05:37:04.069Z,28.97
2018-01-20T05:39:31.969Z,29.30
2018-01-20T05:42:00.684Z,27.60
2018-01-20T05:44:28.588Z,31.20
2018-01-20T05:46:56.464Z,26.67
2018-01-20T05:49:24.303Z,28.70
2018-01-20T05:51:52.178Z,34.00
2018-01-20T05:54:20.029Z,33.20
2018-01-20T05:56:47.884Z,27.80
2018-01-20T05:59:15.802Z,32.97
2018-01-20T06:01:43.672Z,29.10
2018-01-20T06:04:11.525Z,28.17
2018-01-20T06:06:39.398Z,33.87
2018-01-20T06:09:07.308Z,26.67
2018-01-20T06:11:35.171Z,29.43
2018-01-20T06:14:03.133Z,30.70
2018-01-20T06:16:31.012Z,33.47
2018-01-20T06:18:58.855Z,27.47
2018-01-20T06:21:26.736Z,31.13
2018-01-20T06:23:55.519Z,26.90
2018-01-20T06:26:23.362Z,31.03
2018-01-20T06:28:51.231Z,30.50
2018-01-20T06:31:19.096Z,29.43
2018-01-20T06:33:46.955Z,28.53
2018-01-20T06:36:14.835Z,30.97
2018-01-20T06:38:42.684Z,30.37
2018-01-20T06:41:10.525Z,25.33
2018-01-20T06:43:38.447Z,26.93
2018-01-20T06:46:06.355Z,27.60
2018-01-20T06:48:34.223Z,26.60
2018-01-20T06:51:02.108Z,32.37
2018-01-20T06:53:29.976Z,27.13
2018-01-20T06:55:57.826Z,25.93
2018-01-20T06:58:25.736Z,32.50
2018-01-20T07:00:53.596Z,30.00
2018-01-20T07:03:21.464Z,30.00
2018-01-20T07:05:49.325Z,35.17
2018-01-20T07:08:17.209Z,26.43
2018-01-20T07:10:45.092Z,27.77
2018-01-20T07:13:12.956Z,27.47
2018-01-20T07:15:40.875Z,27.30
2018-01-20T07:18:08.729Z,29.20
2018-01-20T07:20:36.634Z,29.17
2018-01-20T07:23:04.494Z,29.17
2018-01-20T07:25:32.361Z,28.53
2018-01-20T07:28:00.236Z,29.57
2018-01-20T07:30:28.076Z,35.90
2018-01-20T07:32:55.933Z,32.10
2018-01-20T07:35:23.815Z,34.70
2018-01-20T07:37:51.667Z,34.23
2018-01-20T07:40:19.515Z,37.27
2018-01-20T07:42:47.368Z,26.17
2018-01-20T07:45:15.251Z,30.47
2018-01-20T07:47:43.097Z,27.93
2018-01-20T07:50:11.052Z,29.90
2018-01-20T07:52:38.884Z,26.40
2018-01-20T07:55:06.740Z,31.73
2018-01-20T07:57:34.660Z,27.20
2018-01-20T08:00:02.496Z,28.33
2018-01-20T08:02:30.340Z,28.97
2018-01-20T08:04:58.232Z,26.73
2018-01-20T08:07:26.064Z,26.07
2018-01-20T08:09:53.940Z,26.50
2018-01-20T08:12:21.826Z,29.53
2018-01-20T08:14:49.664Z,24.30
2018-01-20T08:17:17.528Z,27.53
2018-01-20T08:19:45.405Z,23.20
2018-01-20T08:22:13.974Z,24.00
2018-01-20T08:24:41.806Z,23.17
2018-01-20T08:27:09.670Z,23.73
2018-01-20T08:29:37.536Z,26.10
2018-01-20T08:32:05.400Z,27.27
2018-01-20T08:34:33.285Z,25.47
2018-01-20T08:37:01.121Z,25.97
2018-01-20T08:39:28.989Z,29.00
2018-01-20T08:41:56.851Z,21.63
2018-01-20T08:44:24.696Z,28.73
2018-01-20T08:46:52.584Z,25.43
2018-01-20T08:49:20.445Z,23.53
2018-01-20T08:51:48.343Z,24.50
2018-01-20T08:54:16.188Z,22.03
2018-01-20T08:56:44.084Z,29.63
2018-01-20T08:59:11.947Z,22.00
2018-01-20T09:01:39.843Z,20.37
2018-01-20T09:04:07.778Z,25.20
2018-01-20T09:06:35.644Z,24.13
2018-01-20T09:09:04.921Z,23.23
2018-01-20T09:11:32.796Z,19.03
2018-01-20T09:14:00.659Z,23.40
2018-01-20T09:16:28.538Z,20.90
2018-01-20T09:18:56.420Z,19.50
2018-01-20T09:21:24.277Z,29.43
2018-01-20T09:23:52.160Z,21.80
2018-01-20T09:26:20.082Z,24.33
2018-01-20T09:28:47.928Z,22.63
2018-01-20T09:31:15.933Z,24.00
2018-01-20T09:33:43.832Z,27.03
2018-01-20T09:36:11.724Z,20.17
2018-01-20T09:38:39.574Z,19.67
2018-01-20T09:41:07.595Z,16.23
2018-01-20T09:43:35.499Z,16.07
2018-01-20T09:46:03.367Z,20.20
2018-01-20T09:48:31.302Z,17.93
2018-01-20T09:50:59.316Z,18.27
2018-01-20T09:53:27.166Z,22.17
2018-01-20T09:55:55.065Z,19.87
2018-01-20T09:58:23.454Z,19.07
2018-01-20T10:00:51.350Z,27.73
2018-01-20T10:03:19.269Z,28.37
2018-01-20T10:05:47.136Z,24.10
2018-01-20T10:08:15.007Z,18.27
2018-01-20T10:10:42.886Z,24.33
2018-01-20T10:13:10.756Z,20.77
2018-01-20T10:15:38.623Z,20.97
2018-01-20T10:18:06.540Z,21.80
2018-01-20T10:20:34.442Z,25.10
2018-01-20T10:23:02.281Z,23.40
2018-01-20T10:25:30.142Z,21.50
2018-01-20T10:27:57.978Z,26.93
2018-01-20T10:30:25.844Z,19.50
2018-01-20T10:32:53.737Z,19.00
2018-01-20T10:35:21.608Z,23.53
2018-01-20T10:37:49.476Z,20.73
2018-01-20T10:40:17.372Z,23.03
2018-01-20T10:42:45.300Z,23.47
2018-01-20T10:45:13.176Z,19.80
2018-01-20T10:47:41.110Z,23.80
2018-01-20T10:50:09.108Z,21.27
2018-01-20T10:52:37.080Z,20.47
2018-01-20T10:55:05.095Z,19.33
2018-01-20T10:57:32.998Z,28.30
2018-01-20T11:00:00.847Z,22.37
2018-01-20T11:02:28.708Z,23.03
2018-01-20T11:04:56.579Z,19.70
2018-01-20T11:07:24.630Z,16.70
2018-01-20T11:09:52.552Z,18.07
2018-01-20T11:12:20.410Z,20.13
2018-01-20T11:14:48.276Z,22.40
2018-01-20T11:17:16.280Z,17.10
2018-01-20T11:19:44.152Z,18.90
2018-01-20T11:22:12.021Z,13.03
2018-01-20T11:24:39.928Z,18.50
2018-01-20T11:27:08.012Z,20.00
2018-01-20T11:29:35.881Z,15.87
2018-01-20T11:32:03.788Z,19.40
2018-01-20T11:34:31.675Z,14.60
2018-01-20T11:36:59.542Z,16.97
2018-01-20T11:39:27.419Z,18.47
2018-01-20T11:41:55.252Z,20.87
2018-01-20T11:44:23.212Z,18.50
2018-01-20T11:46:51.128Z,15.80
2018-01-20T11:49:18.958Z,26.53
2018-01-20T11:51:46.845Z,16.70
2018-01-20T11:54:14.752Z,15.30
2018-01-20T11:56:42.634Z,23.80
2018-01-20T11:59:10.576Z,19.33
2018-01-20T12:01:38.531Z,19.23
2018-01-20T12:04:06.467Z,20.30
2018-01-20T12:06:34.416Z,19.93
2018-01-20T12:09:02.911Z,17.77
2018-01-20T12:11:31.260Z,24.47
2018-01-20T12:13:59.459Z,25.17
2018-01-20T12:16:27.385Z,23.90
2018-01-20T12:18:55.255Z,28.77
2018-01-20T12:21:23.143Z,21.20
2018-01-20T12:23:51.018Z,27.53
2018-01-20T12:26:18.880Z,18.60
2018-01-20T12:28:46.820Z,14.57
2018-01-20T12:31:14.715Z,15.83
2018-01-20T12:33:42.576Z,21.67
2018-01-20T12:36:10.448Z,16.63
2018-01-20T12:38:38.357Z,15.67
2018-01-20T12:41:06.215Z,18.13
2018-01-20T12:43:34.095Z,19.60
2018-01-20T12:46:01.977Z,19.83
2018-01-20T12:48:29.868Z,16.27
2018-01-20T12:50:57.718Z,19.70
2018-01-20T12:53:25.653Z,17.53
2018-01-20T12:55:53.539Z,24.53
2018-01-20T12:58:21.475Z,15.33
2018-01-20T13:00:49.347Z,22.73
2018-01-20T13:03:17.207Z,19.33
2018-01-20T13:05:45.077Z,14.97
2018-01-20T13:08:12.948Z,15.77
2018-01-20T13:10:40.808Z,17.00
2018-01-20T13:13:08.668Z,17.10
2018-01-20T13:15:36.551Z,20.20
2018-01-20T13:18:04.402Z,16.50
2018-01-20T13:20:32.279Z,19.10
2018-01-20T13:23:00.878Z,19.37
2018-01-20T13:25:28.764Z,19.03
2018-01-20T13:27:56.684Z,17.67
2018-01-20T13:30:24.598Z,22.00
2018-01-20T13:32:52.536Z,21.03
2018-01-20T13:35:20.550Z,28.07
2018-01-20T13:37:48.414Z,16.00
2018-01-20T13:40:16.263Z,27.10
2018-01-20T13:42:44.159Z,27.57
2018-01-20T13:45:12.360Z,19.37
2018-01-20T13:47:40.201Z,21.60
2018-01-20T13:50:08.061Z,17.30
2018-01-20T13:52:35.956Z,23.13
2018-01-20T13:55:03.857Z,22.70
2018-01-20T13:57:31.745Z,15.90
2018-01-20T13:59:59.730Z,20.27
2018-01-20T14:02:27.607Z,18.60
2018-01-20T14:04:55.488Z,18.40
2018-01-20T14:07:23.348Z,24.97
2018-01-20T14:09:51.237Z,20.97
2018-01-20T14:12:19.081Z,19.20
2018-01-20T14:14:46.987Z,24.33
2018-01-20T14:17:14.859Z,21.60
2018-01-20T14:19:42.715Z,16.13
2018-01-20T14:22:10.590Z,15.30
2018-01-20T14:24:38.480Z,23.33
2018-01-20T14:27:06.419Z,24.83
2018-01-20T14:29:34.323Z,20.53
2018-01-20T14:32:02.184Z,21.13
2018-01-20T14:34:30.016Z,20.57
2018-01-20T14:36:57.892Z,20.47
2018-01-20T14:39:25.777Z,20.10
2018-01-20T14:41:53.628Z,28.70
2018-01-20T14:44:21.506Z,29.33
2018-01-20T14:46:49.363Z,22.60
2018-01-20T14:49:17.244Z,24.27
2018-01-20T14:51:45.120Z,20.33
2018-01-20T14:54:13.055Z,22.80
2018-01-20T14:56:40.997Z,23.53
2018-01-20T14:59:08.871Z,22.33
2018-01-20T15:01:36.737Z,21.70
2018-01-20T15:04:04.642Z,24.23
2018-01-20T15:06:32.584Z,23.77
2018-01-20T15:09:00.481Z,30.57
2018-01-20T15:11:28.330Z,26.90
2018-01-20T15:13:56.191Z,28.10
2018-01-20T15:16:24.028Z,23.30
2018-01-20T15:18:51.868Z,22.80
2018-01-20T15:21:19.730Z,28.50
2018-01-20T15:23:47.654Z,22.20
2018-01-20T15:26:15.569Z,24.50
2018-01-20T15:28:43.480Z,24.73
2018-01-20T15:31:11.354Z,24.23
2018-01-20T15:33:39.790Z,22.63
2018-01-20T15:36:07.704Z,25.73
2018-01-20T15:38:35.607Z,21.90
2018-01-20T15:41:03.472Z,21.47
2018-01-20T15:43:31.356Z,25.43
2018-01-20T15:45:59.252Z,24.93
2018-01-20T15:48:27.096Z,26.60
2018-01-20T15:50:55.063Z,29.80
2018-01-20T15:53:23.617Z,28.17
2018-01-20T15:55:51.734Z,28.93
2018-01-20T15:58:22.419Z,35.03
2018-01-20T16:00:50.312Z,28.37
2018-01-20T16:03:18.260Z,29.33
2018-01-20T16:05:46.150Z,30.50
2018-01-20T16:08:14.008Z,25.20
2018-01-20T16:10:41.934Z,23.87
2018-01-20T16:13:09.824Z,30.93
2018-01-20T16:15:38.090Z,26.60
2018-01-20T16:18:05.961Z,29.07
2018-01-20T16:20:33.936Z,31.20
2018-01-20T16:23:01.780Z,28.73
2018-01-20T16:25:29.663Z,26.30
2018-01-20T16:27:57.570Z,26.90
2018-01-20T16:30:25.417Z,29.70
2018-01-20T16:32:53.278Z,28.63
2018-01-20T16:35:21.154Z,25.07
2018-01-20T16:37:49.253Z,30.07
2018-01-20T16:40:17.141Z,28.20
2018-01-20T16:42:45.048Z,26.50
2018-01-20T16:45:12.951Z,26.90
2018-01-20T16:47:40.793Z,25.73
2018-01-20T16:50:08.702Z,25.67
2018-01-20T16:52:36.551Z,24.77
2018-01-20T16:55:04.502Z,35.63
2018-01-20T16:57:32.399Z,31.50
2018-01-20T17:00:00.297Z,33.07
2018-01-20T17:02:28.128Z,39.67
2018-01-20T17:04:55.996Z,31.90
2018-01-20T17:07:23.847Z,32.10
2018-01-20T17:09:51.732Z,31.70
2018-01-20T17:12:19.601Z,34.73
2018-01-20T17:14:47.487Z,30.20
2018-01-20T17:17:15.349Z,31.60
2018-01-20T17:19:43.257Z,34.60
2018-01-20T17:22:11.154Z,28.37
2018-01-20T17:24:39.345Z,26.37
2018-01-20T17:27:07.305Z,49.13
2018-01-20T17:29:35.296Z,27.00
2018-01-20T17:32:03.204Z,29.83
2018-01-20T17:34:31.099Z,30.90
2018-01-20T17:36:58.940Z,39.27
2018-01-20T17:39:26.820Z,25.57
2018-01-20T17:41:54.857Z,34.00
2018-01-20T17:44:23.672Z,28.17
2018-01-20T17:46:51.655Z,25.63
2018-01-20T17:49:19.633Z,25.80
2018-01-20T17:51:47.497Z,29.50
2018-01-20T17:54:15.424Z,30.33
2018-01-20T17:56:43.322Z,33.80
2018-01-20T17:59:11.177Z,29.60
2018-01-20T18:01:39.147Z,30.93
2018-01-20T18:04:07.097Z,31.00
2018-01-20T18:06:34.942Z,26.90
2018-01-20T18:09:02.889Z,33.07
2018-01-20T18:11:30.752Z,29.43
2018-01-20T18:13:58.695Z,27.97
2018-01-20T18:16:26.603Z,32.77
2018-01-20T18:18:55.296Z,28.10
2018-01-20T18:21:23.166Z,28.23
2018-01-20T18:23:51.009Z,28.80
2018-01-20T18:26:18.886Z,34.17
2018-01-20T18:28:46.749Z,34.10
2018-01-20T18:31:14.641Z,34.13
2018-01-20T18:33:42.512Z,30.53
2018-01-20T18:36:10.370Z,34.83
2018-01-20T18:38:38.218Z,34.10
2018-01-20T18:41:06.120Z,33.97
2018-01-20T18:43:34.016Z,31.50
2018-01-20T18:46:01.875Z,35.70
2018-01-20T18:48:29.754Z,30.00
2018-01-20T18:50:57.661Z,31.80
2018-01-20T18:53:25.524Z,36.23
2018-01-20T18:55:53.423Z,31.47
2018-01-20T18:58:21.291Z,33.77
2018-01-20T19:00:49.151Z,32.70
2018-01-20T19:03:17.085Z,40.83
2018-01-20T19:05:44.948Z,41.80
2018-01-20T19:08:12.836Z,28.10
2018-01-20T19:10:40.720Z,39.00
2018-01-20T19:13:08.591Z,31.33
2018-01-20T19:15:36.456Z,29.33
2018-01-20T19:18:04.366Z,35.03
2018-01-20T19:20:32.207Z,36.40
2018-01-20T19:23:00.068Z,32.30
2018-01-20T19:25:27.940Z,33.13
2018-01-20T19:27:55.793Z,34.97
2018-01-20T19:30:23.640Z,33.13
2018-01-20T19:32:51.558Z,31.50
2018-01-20T19:35:19.411Z,34.40
2018-01-20T19:37:47.277Z,37.30
2018-01-20T19:40:15.196Z,33.47
2018-01-20T19:42:43.072Z,41.03
2018-01-20T19:45:10.934Z,38.33
2018-01-20T19:47:38.836Z,33.80
2018-01-20T19:50:06.744Z,35.50
2018-01-20T19:52:34.618Z,35.33
2018-01-20T19:55:02.506Z,37.00
2018-01-20T19:57:30.415Z,35.57
2018-01-20T19:59:58.327Z,37.03
2018-01-20T20:02:26.314Z,40.67
2018-01-20T20:04:54.217Z,39.90
2018-01-20T20:07:22.076Z,31.13
2018-01-20T20:09:49.980Z,40.67
2018-01-20T20:12:17.839Z,37.03
2018-01-20T20:14:45.759Z,37.57
2018-01-20T20:17:13.660Z,28.00
2018-01-20T20:19:41.552Z,33.80
2018-01-20T20:22:09.421Z,33.03
2018-01-20T20:24:37.339Z,34.50
2018-01-20T20:27:05.195Z,36.33
2018-01-20T20:29:33.066Z,30.90
2018-01-20T20:32:01.016Z,39.17
2018-01-20T20:34:28.912Z,37.27
2018-01-20T20:36:56.826Z,39.80
2018-01-20T20:39:24.708Z,37.60
2018-01-20T20:41:52.575Z,41.13
2018-01-20T20:44:20.503Z,44.50
2018-01-20T20:46:48.409Z,26.23
2018-01-20T20:49:16.300Z,36.50
2018-01-20T20:51:44.268Z,34.07
2018-01-20T20:54:12.157Z,29.40
2018-01-20T20:56:40.053Z,30.70
2018-01-20T20:59:07.965Z,35.60
2018-01-20T21:01:35.930Z,32.30
2018-01-20T21:04:03.837Z,31.37
2018-01-20T21:06:31.732Z,32.67
2018-01-20T21:08:59.678Z,36.00
2018-01-20T21:11:27.569Z,36.57
2018-01-20T21:13:55.481Z,42.93
2018-01-20T21:16:23.353Z,38.03
2018-01-20T21:18:51.224Z,39.90
2018-01-20T21:21:19.089Z,48.77
2018-01-20T21:23:46.974Z,47.33
2018-01-20T21:26:14.827Z,45.40
2018-01-20T21:28:42.710Z,45.50
2018-01-20T21:31:11.054Z,49.53
2018-01-20T21:33:38.963Z,54.00
2018-01-20T21:36:06.876Z,52.10
2018-01-20T21:38:34.743Z,56.80
2018-01-20T21:41:02.681Z,49.97
2018-01-20T21:43:30.523Z,47.80
2018-01-20T21:45:58.426Z,51.90
2018-01-20T21:48:26.328Z,53.73
2018-01-20T21:50:54.188Z,50.33
2018-01-20T21:53:22.120Z,64.73
2018-01-20T21:55:50.045Z,55.43
2018-01-20T21:58:17.912Z,57.70
2018-01-20T22:00:45.802Z,58.80
2018-01-20T22:03:13.726Z,48.97
2018-01-20T22:05:41.596Z,48.20
2018-01-20T22:08:09.470Z,54.80
2018-01-20T22:10:37.364Z,53.70
2018-01-20T22:13:05.276Z,48.70
2018-01-20T22:15:33.116Z,46.47
2018-01-20T22:18:00.997Z,52.57
2018-01-20T22:20:28.852Z,47.80
2018-01-20T22:22:56.736Z,48.87
2018-01-20T22:25:24.602Z,47.97
2018-01-20T22:27:53.083Z,44.77
2018-01-20T22:30:21.144Z,46.60
2018-01-20T22:32:49.144Z,46.43
2018-01-20T22:35:16.988Z,51.90
2018-01-20T22:37:44.877Z,49.43
2018-01-20T22:40:12.720Z,55.37
2018-01-20T22:42:59.348Z,49.20
2018-01-20T22:45:27.396Z,50.73
2018-01-20T22:47:55.637Z,51.10
2018-01-20T22:50:23.479Z,47.27
2018-01-20T22:52:51.342Z,52.30
2018-01-20T22:55:19.219Z,50.93
2018-01-20T22:57:47.060Z,51.40
2018-01-20T23:00:14.920Z,52.37
2018-01-20T23:02:42.766Z,58.50
2018-01-20T23:05:10.608Z,55.53
2018-01-20T23:07:38.521Z,56.47
2018-01-20T23:10:06.463Z,53.60
2018-01-20T23:12:34.390Z,55.83
2018-01-20T23:15:02.262Z,57.70
2018-01-20T23:17:30.168Z,56.23
2018-01-20T23:19:58.019Z,51.53
2018-01-20T23:22:25.889Z,49.67
2018-01-20T23:24:53.760Z,53.10
2018-01-20T23:27:21.648Z,52.97
2018-01-20T23:29:49.528Z,54.43
2018-01-20T23:32:17.497Z,52.87
2018-01-20T23:34:45.363Z,58.30
2018-01-20T23:37:13.251Z,53.00
2018-01-20T23:39:41.152Z,66.27
2018-01-20T23:42:09.082Z,70.77
2018-01-20T23:44:36.949Z,52.17
2018-01-20T23:47:04.796Z,47.37
2018-01-20T23:49:32.676Z,50.20
2018-01-20T23:52:00.568Z,55.80
2018-01-20T23:54:28.443Z,58.33
2018-01-20T23:56:56.410Z,65.37
2018-01-20T23:59:24.301Z,67.53
